sensor_id;sensor_type;location;lat;lon;timestamp;P1;durP1;ratioP1;P2;durP2;ratioP2
14118;SDS011;7138;49.246;9.100;2022-11-18T00:01:24;2.50;;;0.90;;
14118;SDS011;7138;49.246;9.100;2022-11-18T00:03:50;4.18;;;0.90;;
14118;SDS011;7138;49.246;9.100;2022-11-18T00:06:17;3.03;;;0.88;;
14118;SDS011;7138;49.246;9.100;2022-11-18T00:08:45;3.13;;;0.80;;
14118;SDS011;7138;49.246;9.100;2022-11-18T00:11:13;2.08;;;0.73;;
14118;SDS011;7138;49.246;9.100;2022-11-18T00:14:00;2.70;;;0.85;;
14118;SDS011;7138;49.246;9.100;2022-11-18T00:16:45;3.45;;;0.90;;
14118;SDS011;7138;49.246;9.100;2022-11-18T00:19:15;3.40;;;0.98;;
14118;SDS011;7138;49.246;9.100;2022-11-18T00:21:42;2.35;;;0.80;;
14118;SDS011;7138;49.246;9.100;2022-11-18T00:24:08;3.25;;;1.00;;
14118;SDS011;7138;49.246;9.100;2022-11-18T00:26:34;2.95;;;1.13;;
14118;SDS011;7138;49.246;9.100;2022-11-18T00:29:02;3.42;;;1.10;;
14118;SDS011;7138;49.246;9.100;2022-11-18T00:31:28;4.25;;;0.80;;
14118;SDS011;7138;49.246;9.100;2022-11-18T00:33:54;2.58;;;0.85;;
14118;SDS011;7138;49.246;9.100;2022-11-18T00:36:20;2.30;;;0.90;;
14118;SDS011;7138;49.246;9.100;2022-11-18T00:38:46;4.60;;;1.00;;
14118;SDS011;7138;49.246;9.100;2022-11-18T00:41:12;3.53;;;1.40;;
14118;SDS011;7138;49.246;9.100;2022-11-18T00:43:40;2.80;;;1.00;;
14118;SDS011;7138;49.246;9.100;2022-11-18T00:46:08;2.97;;;0.80;;
14118;SDS011;7138;49.246;9.100;2022-11-18T00:48:35;2.85;;;1.20;;
14118;SDS011;7138;49.246;9.100;2022-11-18T00:51:06;4.32;;;1.00;;
14118;SDS011;7138;49.246;9.100;2022-11-18T00:53:35;2.85;;;0.60;;
14118;SDS011;7138;49.246;9.100;2022-11-18T00:56:01;2.65;;;1.15;;
14118;SDS011;7138;49.246;9.100;2022-11-18T00:58:28;3.95;;;0.70;;
14118;SDS011;7138;49.246;9.100;2022-11-18T01:00:54;4.97;;;0.90;;
14118;SDS011;7138;49.246;9.100;2022-11-18T01:03:21;4.70;;;0.80;;
14118;SDS011;7138;49.246;9.100;2022-11-18T01:05:49;3.72;;;1.02;;
14118;SDS011;7138;49.246;9.100;2022-11-18T01:08:16;3.63;;;0.80;;
14118;SDS011;7138;49.246;9.100;2022-11-18T01:10:43;4.47;;;0.70;;
14118;SDS011;7138;49.246;9.100;2022-11-18T01:13:15;2.55;;;0.70;;
14118;SDS011;7138;49.246;9.100;2022-11-18T01:15:44;3.45;;;0.70;;
14118;SDS011;7138;49.246;9.100;2022-11-18T01:18:12;3.97;;;0.70;;
14118;SDS011;7138;49.246;9.100;2022-11-18T01:20:40;3.10;;;0.77;;
14118;SDS011;7138;49.246;9.100;2022-11-18T01:23:06;2.40;;;0.70;;
14118;SDS011;7138;49.246;9.100;2022-11-18T01:25:33;1.90;;;0.57;;
14118;SDS011;7138;49.246;9.100;2022-11-18T01:28:01;3.33;;;0.68;;
14118;SDS011;7138;49.246;9.100;2022-11-18T01:30:27;2.53;;;0.90;;
14118;SDS011;7138;49.246;9.100;2022-11-18T01:32:53;6.10;;;2.13;;
14118;SDS011;7138;49.246;9.100;2022-11-18T01:37:54;4.53;;;0.85;;
14118;SDS011;7138;49.246;9.100;2022-11-18T01:40:20;4.20;;;0.82;;
14118;SDS011;7138;49.246;9.100;2022-11-18T01:42:46;3.58;;;0.80;;
14118;SDS011;7138;49.246;9.100;2022-11-18T01:45:18;5.13;;;0.90;;
14118;SDS011;7138;49.246;9.100;2022-11-18T01:47:54;3.17;;;0.80;;
14118;SDS011;7138;49.246;9.100;2022-11-18T01:50:28;8.02;;;0.90;;
14118;SDS011;7138;49.246;9.100;2022-11-18T01:53:01;2.58;;;0.60;;
14118;SDS011;7138;49.246;9.100;2022-11-18T01:55:32;2.67;;;0.90;;
14118;SDS011;7138;49.246;9.100;2022-11-18T01:58:07;8.73;;;1.15;;
14118;SDS011;7138;49.246;9.100;2022-11-18T02:00:39;4.85;;;0.95;;
14118;SDS011;7138;49.246;9.100;2022-11-18T02:03:05;3.33;;;0.52;;
14118;SDS011;7138;49.246;9.100;2022-11-18T02:05:32;2.28;;;0.60;;
14118;SDS011;7138;49.246;9.100;2022-11-18T02:08:01;3.25;;;0.93;;
14118;SDS011;7138;49.246;9.100;2022-11-18T02:12:58;3.75;;;0.80;;
14118;SDS011;7138;49.246;9.100;2022-11-18T02:15:29;2.35;;;0.55;;
14118;SDS011;7138;49.246;9.100;2022-11-18T02:18:13;4.75;;;0.80;;
14118;SDS011;7138;49.246;9.100;2022-11-18T02:20:54;1.52;;;0.50;;
14118;SDS011;7138;49.246;9.100;2022-11-18T02:23:42;2.67;;;0.60;;
14118;SDS011;7138;49.246;9.100;2022-11-18T02:26:54;2.78;;;0.73;;
14118;SDS011;7138;49.246;9.100;2022-11-18T02:29:53;1.75;;;0.52;;
14118;SDS011;7138;49.246;9.100;2022-11-18T02:32:28;1.73;;;0.50;;
14118;SDS011;7138;49.246;9.100;2022-11-18T02:35:00;2.45;;;0.70;;
14118;SDS011;7138;49.246;9.100;2022-11-18T02:37:35;2.70;;;0.73;;
14118;SDS011;7138;49.246;9.100;2022-11-18T02:40:09;3.95;;;0.80;;
14118;SDS011;7138;49.246;9.100;2022-11-18T02:42:41;3.78;;;0.60;;
14118;SDS011;7138;49.246;9.100;2022-11-18T02:45:17;2.40;;;0.55;;
14118;SDS011;7138;49.246;9.100;2022-11-18T02:47:46;2.25;;;0.60;;
14118;SDS011;7138;49.246;9.100;2022-11-18T02:50:16;2.15;;;0.90;;
14118;SDS011;7138;49.246;9.100;2022-11-18T02:52:50;3.35;;;0.93;;
14118;SDS011;7138;49.246;9.100;2022-11-18T02:55:22;2.97;;;0.80;;
14118;SDS011;7138;49.246;9.100;2022-11-18T03:00:20;3.08;;;0.60;;
14118;SDS011;7138;49.246;9.100;2022-11-18T03:02:46;4.60;;;0.68;;
14118;SDS011;7138;49.246;9.100;2022-11-18T03:05:15;6.05;;;1.00;;
14118;SDS011;7138;49.246;9.100;2022-11-18T03:07:50;5.38;;;0.93;;
14118;SDS011;7138;49.246;9.100;2022-11-18T03:10:20;3.95;;;0.70;;
14118;SDS011;7138;49.246;9.100;2022-11-18T03:12:59;3.80;;;0.90;;
14118;SDS011;7138;49.246;9.100;2022-11-18T03:15:35;2.70;;;0.82;;
14118;SDS011;7138;49.246;9.100;2022-11-18T03:18:14;2.13;;;0.90;;
14118;SDS011;7138;49.246;9.100;2022-11-18T03:20:52;4.90;;;0.90;;
14118;SDS011;7138;49.246;9.100;2022-11-18T03:23:26;3.72;;;0.70;;
14118;SDS011;7138;49.246;9.100;2022-11-18T03:26:00;2.20;;;0.70;;
14118;SDS011;7138;49.246;9.100;2022-11-18T03:28:34;2.10;;;0.60;;
14118;SDS011;7138;49.246;9.100;2022-11-18T03:31:09;2.10;;;0.65;;
14118;SDS011;7138;49.246;9.100;2022-11-18T03:33:44;3.95;;;0.88;;
14118;SDS011;7138;49.246;9.100;2022-11-18T03:36:15;2.00;;;0.70;;
14118;SDS011;7138;49.246;9.100;2022-11-18T03:38:47;5.72;;;0.88;;
14118;SDS011;7138;49.246;9.100;2022-11-18T03:41:19;3.40;;;0.88;;
14118;SDS011;7138;49.246;9.100;2022-11-18T03:43:54;3.65;;;0.75;;
14118;SDS011;7138;49.246;9.100;2022-11-18T03:46:26;3.85;;;0.70;;
14118;SDS011;7138;49.246;9.100;2022-11-18T03:49:03;4.22;;;0.60;;
14118;SDS011;7138;49.246;9.100;2022-11-18T03:51:35;4.63;;;0.65;;
14118;SDS011;7138;49.246;9.100;2022-11-18T03:54:09;1.48;;;0.30;;
14118;SDS011;7138;49.246;9.100;2022-11-18T03:56:41;2.17;;;0.50;;
14118;SDS011;7138;49.246;9.100;2022-11-18T03:59:14;2.80;;;0.60;;
14118;SDS011;7138;49.246;9.100;2022-11-18T04:01:47;2.50;;;0.57;;
14118;SDS011;7138;49.246;9.100;2022-11-18T04:04:20;3.88;;;0.50;;
14118;SDS011;7138;49.246;9.100;2022-11-18T04:06:49;3.47;;;0.68;;
14118;SDS011;7138;49.246;9.100;2022-11-18T04:09:25;1.98;;;0.38;;
14118;SDS011;7138;49.246;9.100;2022-11-18T04:12:01;3.13;;;0.40;;
14118;SDS011;7138;49.246;9.100;2022-11-18T04:14:33;2.13;;;0.30;;
14118;SDS011;7138;49.246;9.100;2022-11-18T04:17:05;1.60;;;0.30;;
14118;SDS011;7138;49.246;9.100;2022-11-18T04:19:34;3.10;;;0.30;;
14118;SDS011;7138;49.246;9.100;2022-11-18T04:22:00;1.30;;;0.30;;
14118;SDS011;7138;49.246;9.100;2022-11-18T04:24:26;3.55;;;0.30;;
14118;SDS011;7138;49.246;9.100;2022-11-18T04:26:52;2.67;;;0.40;;
14118;SDS011;7138;49.246;9.100;2022-11-18T04:29:18;3.05;;;0.40;;
14118;SDS011;7138;49.246;9.100;2022-11-18T04:31:44;2.00;;;0.40;;
14118;SDS011;7138;49.246;9.100;2022-11-18T04:34:11;3.15;;;0.47;;
14118;SDS011;7138;49.246;9.100;2022-11-18T04:36:38;1.90;;;0.40;;
14118;SDS011;7138;49.246;9.100;2022-11-18T04:39:04;1.50;;;0.30;;
14118;SDS011;7138;49.246;9.100;2022-11-18T04:41:30;1.38;;;0.30;;
14118;SDS011;7138;49.246;9.100;2022-11-18T04:44:15;2.00;;;0.20;;
14118;SDS011;7138;49.246;9.100;2022-11-18T04:46:41;6.80;;;1.25;;
14118;SDS011;7138;49.246;9.100;2022-11-18T04:49:08;1.92;;;0.30;;
14118;SDS011;7138;49.246;9.100;2022-11-18T04:51:37;2.25;;;0.30;;
14118;SDS011;7138;49.246;9.100;2022-11-18T04:54:05;1.17;;;0.30;;
14118;SDS011;7138;49.246;9.100;2022-11-18T04:56:31;2.03;;;0.38;;
14118;SDS011;7138;49.246;9.100;2022-11-18T04:58:57;3.35;;;0.40;;
14118;SDS011;7138;49.246;9.100;2022-11-18T05:01:24;4.80;;;0.43;;
14118;SDS011;7138;49.246;9.100;2022-11-18T05:03:50;3.53;;;0.52;;
14118;SDS011;7138;49.246;9.100;2022-11-18T05:06:17;4.07;;;0.52;;
14118;SDS011;7138;49.246;9.100;2022-11-18T05:08:43;2.25;;;0.38;;
14118;SDS011;7138;49.246;9.100;2022-11-18T05:11:09;2.55;;;0.30;;
14118;SDS011;7138;49.246;9.100;2022-11-18T05:13:54;0.73;;;0.30;;
14118;SDS011;7138;49.246;9.100;2022-11-18T05:16:20;2.15;;;0.57;;
14118;SDS011;7138;49.246;9.100;2022-11-18T05:18:45;2.38;;;0.70;;
14118;SDS011;7138;49.246;9.100;2022-11-18T05:21:12;2.80;;;0.90;;
14118;SDS011;7138;49.246;9.100;2022-11-18T05:23:39;2.08;;;0.50;;
14118;SDS011;7138;49.246;9.100;2022-11-18T05:26:05;2.25;;;0.60;;
14118;SDS011;7138;49.246;9.100;2022-11-18T05:28:34;4.53;;;0.60;;
14118;SDS011;7138;49.246;9.100;2022-11-18T05:31:04;4.40;;;0.50;;
14118;SDS011;7138;49.246;9.100;2022-11-18T05:33:32;2.30;;;0.60;;
14118;SDS011;7138;49.246;9.100;2022-11-18T05:36:01;2.30;;;0.50;;
14118;SDS011;7138;49.246;9.100;2022-11-18T05:38:28;2.75;;;0.60;;
14118;SDS011;7138;49.246;9.100;2022-11-18T05:40:55;2.00;;;0.70;;
14118;SDS011;7138;49.246;9.100;2022-11-18T05:43:21;3.55;;;0.90;;
14118;SDS011;7138;49.246;9.100;2022-11-18T05:45:49;4.60;;;0.80;;
14118;SDS011;7138;49.246;9.100;2022-11-18T05:48:16;7.60;;;1.02;;
14118;SDS011;7138;49.246;9.100;2022-11-18T05:50:44;1.98;;;0.60;;
14118;SDS011;7138;49.246;9.100;2022-11-18T05:53:12;4.80;;;0.80;;
14118;SDS011;7138;49.246;9.100;2022-11-18T05:55:39;2.88;;;0.93;;
14118;SDS011;7138;49.246;9.100;2022-11-18T05:58:16;5.57;;;0.80;;
14118;SDS011;7138;49.246;9.100;2022-11-18T06:00:42;3.13;;;0.80;;
14118;SDS011;7138;49.246;9.100;2022-11-18T06:03:16;4.72;;;0.80;;
14118;SDS011;7138;49.246;9.100;2022-11-18T06:05:47;2.45;;;0.90;;
14118;SDS011;7138;49.246;9.100;2022-11-18T06:08:13;5.25;;;0.90;;
14118;SDS011;7138;49.246;9.100;2022-11-18T06:10:42;3.25;;;0.88;;
14118;SDS011;7138;49.246;9.100;2022-11-18T06:13:15;3.75;;;1.05;;
14118;SDS011;7138;49.246;9.100;2022-11-18T06:15:47;2.33;;;0.88;;
14118;SDS011;7138;49.246;9.100;2022-11-18T06:18:15;4.10;;;1.30;;
14118;SDS011;7138;49.246;9.100;2022-11-18T06:20:47;4.10;;;0.95;;
14118;SDS011;7138;49.246;9.100;2022-11-18T06:23:15;3.72;;;1.08;;
14118;SDS011;7138;49.246;9.100;2022-11-18T06:25:41;5.57;;;1.10;;
14118;SDS011;7138;49.246;9.100;2022-11-18T06:28:08;3.45;;;1.02;;
14118;SDS011;7138;49.246;9.100;2022-11-18T06:30:38;5.97;;;1.25;;
14118;SDS011;7138;49.246;9.100;2022-11-18T06:33:04;4.53;;;1.30;;
14118;SDS011;7138;49.246;9.100;2022-11-18T06:35:29;7.45;;;1.42;;
14118;SDS011;7138;49.246;9.100;2022-11-18T06:37:55;3.00;;;1.20;;
14118;SDS011;7138;49.246;9.100;2022-11-18T06:40:21;2.83;;;1.13;;
14118;SDS011;7138;49.246;9.100;2022-11-18T06:42:47;4.20;;;1.30;;
14118;SDS011;7138;49.246;9.100;2022-11-18T06:45:32;3.70;;;1.20;;
14118;SDS011;7138;49.246;9.100;2022-11-18T06:47:59;2.40;;;1.00;;
14118;SDS011;7138;49.246;9.100;2022-11-18T06:50:25;4.90;;;1.00;;
14118;SDS011;7138;49.246;9.100;2022-11-18T06:52:51;2.42;;;0.80;;
14118;SDS011;7138;49.246;9.100;2022-11-18T06:55:17;2.53;;;0.73;;
14118;SDS011;7138;49.246;9.100;2022-11-18T06:57:43;2.83;;;0.80;;
14118;SDS011;7138;49.246;9.100;2022-11-18T07:00:10;2.33;;;0.70;;
14118;SDS011;7138;49.246;9.100;2022-11-18T07:02:37;2.13;;;0.70;;
14118;SDS011;7138;49.246;9.100;2022-11-18T07:05:05;2.00;;;0.52;;
14118;SDS011;7138;49.246;9.100;2022-11-18T07:07:33;3.10;;;0.60;;
14118;SDS011;7138;49.246;9.100;2022-11-18T07:09:59;2.88;;;0.70;;
14118;SDS011;7138;49.246;9.100;2022-11-18T07:12:25;1.98;;;0.57;;
14118;SDS011;7138;49.246;9.100;2022-11-18T07:14:51;2.53;;;0.70;;
14118;SDS011;7138;49.246;9.100;2022-11-18T07:17:17;1.75;;;0.60;;
14118;SDS011;7138;49.246;9.100;2022-11-18T07:19:43;1.67;;;0.55;;
14118;SDS011;7138;49.246;9.100;2022-11-18T07:22:10;2.00;;;0.55;;
14118;SDS011;7138;49.246;9.100;2022-11-18T07:24:36;3.80;;;0.55;;
14118;SDS011;7138;49.246;9.100;2022-11-18T07:27:02;2.38;;;0.65;;
14118;SDS011;7138;49.246;9.100;2022-11-18T07:29:28;1.85;;;0.52;;
14118;SDS011;7138;49.246;9.100;2022-11-18T07:31:54;2.35;;;0.50;;
14118;SDS011;7138;49.246;9.100;2022-11-18T07:34:19;1.80;;;0.50;;
14118;SDS011;7138;49.246;9.100;2022-11-18T07:36:45;2.40;;;0.60;;
14118;SDS011;7138;49.246;9.100;2022-11-18T07:39:12;3.88;;;0.70;;
14118;SDS011;7138;49.246;9.100;2022-11-18T07:41:39;3.40;;;0.65;;
14118;SDS011;7138;49.246;9.100;2022-11-18T07:44:05;2.03;;;0.70;;
14118;SDS011;7138;49.246;9.100;2022-11-18T07:46:32;2.45;;;0.68;;
14118;SDS011;7138;49.246;9.100;2022-11-18T07:49:00;1.15;;;0.43;;
14118;SDS011;7138;49.246;9.100;2022-11-18T07:51:29;1.45;;;0.50;;
14118;SDS011;7138;49.246;9.100;2022-11-18T07:53:58;1.80;;;0.40;;
14118;SDS011;7138;49.246;9.100;2022-11-18T07:56:26;1.85;;;0.57;;
14118;SDS011;7138;49.246;9.100;2022-11-18T07:58:52;2.38;;;0.50;;
14118;SDS011;7138;49.246;9.100;2022-11-18T08:01:19;1.60;;;0.50;;
14118;SDS011;7138;49.246;9.100;2022-11-18T08:03:47;2.33;;;0.50;;
14118;SDS011;7138;49.246;9.100;2022-11-18T08:06:13;1.42;;;0.50;;
14118;SDS011;7138;49.246;9.100;2022-11-18T08:08:41;1.52;;;0.43;;
14118;SDS011;7138;49.246;9.100;2022-11-18T08:11:08;1.48;;;0.50;;
14118;SDS011;7138;49.246;9.100;2022-11-18T08:13:38;3.08;;;0.90;;
14118;SDS011;7138;49.246;9.100;2022-11-18T08:16:04;1.95;;;0.60;;
14118;SDS011;7138;49.246;9.100;2022-11-18T08:18:38;2.83;;;0.63;;
14118;SDS011;7138;49.246;9.100;2022-11-18T08:21:04;1.75;;;0.50;;
14118;SDS011;7138;49.246;9.100;2022-11-18T08:23:30;2.50;;;0.75;;
14118;SDS011;7138;49.246;9.100;2022-11-18T08:26:00;1.67;;;0.60;;
14118;SDS011;7138;49.246;9.100;2022-11-18T08:28:27;2.92;;;0.70;;
14118;SDS011;7138;49.246;9.100;2022-11-18T08:30:55;2.40;;;0.90;;
14118;SDS011;7138;49.246;9.100;2022-11-18T08:33:21;2.05;;;0.65;;
14118;SDS011;7138;49.246;9.100;2022-11-18T08:35:46;2.72;;;0.73;;
14118;SDS011;7138;49.246;9.100;2022-11-18T08:38:12;3.33;;;0.75;;
14118;SDS011;7138;49.246;9.100;2022-11-18T08:40:38;2.63;;;0.60;;
14118;SDS011;7138;49.246;9.100;2022-11-18T08:43:09;6.28;;;0.90;;
14118;SDS011;7138;49.246;9.100;2022-11-18T08:45:36;2.63;;;0.68;;
14118;SDS011;7138;49.246;9.100;2022-11-18T08:48:08;2.08;;;0.50;;
14118;SDS011;7138;49.246;9.100;2022-11-18T08:50:34;1.83;;;0.60;;
14118;SDS011;7138;49.246;9.100;2022-11-18T08:53:00;1.88;;;0.68;;
14118;SDS011;7138;49.246;9.100;2022-11-18T08:55:26;3.70;;;0.68;;
14118;SDS011;7138;49.246;9.100;2022-11-18T08:57:52;2.15;;;0.55;;
14118;SDS011;7138;49.246;9.100;2022-11-18T09:00:18;2.97;;;0.70;;
14118;SDS011;7138;49.246;9.100;2022-11-18T09:02:44;3.10;;;0.50;;
14118;SDS011;7138;49.246;9.100;2022-11-18T09:05:11;2.15;;;0.80;;
14118;SDS011;7138;49.246;9.100;2022-11-18T09:07:37;2.40;;;0.80;;
14118;SDS011;7138;49.246;9.100;2022-11-18T09:10:04;1.25;;;0.55;;
14118;SDS011;7138;49.246;9.100;2022-11-18T09:12:30;2.38;;;0.60;;
14118;SDS011;7138;49.246;9.100;2022-11-18T09:14:56;3.05;;;0.50;;
14118;SDS011;7138;49.246;9.100;2022-11-18T09:17:22;3.30;;;0.50;;
14118;SDS011;7138;49.246;9.100;2022-11-18T09:19:48;2.35;;;0.70;;
14118;SDS011;7138;49.246;9.100;2022-11-18T09:22:15;2.10;;;0.68;;
14118;SDS011;7138;49.246;9.100;2022-11-18T09:24:41;2.90;;;0.85;;
14118;SDS011;7138;49.246;9.100;2022-11-18T09:27:07;2.30;;;0.70;;
14118;SDS011;7138;49.246;9.100;2022-11-18T09:29:33;1.83;;;0.70;;
14118;SDS011;7138;49.246;9.100;2022-11-18T09:32:00;2.30;;;0.60;;
14118;SDS011;7138;49.246;9.100;2022-11-18T09:34:27;1.45;;;0.60;;
14118;SDS011;7138;49.246;9.100;2022-11-18T09:36:53;4.63;;;0.70;;
14118;SDS011;7138;49.246;9.100;2022-11-18T09:39:22;4.90;;;0.80;;
14118;SDS011;7138;49.246;9.100;2022-11-18T09:41:49;2.15;;;0.70;;
14118;SDS011;7138;49.246;9.100;2022-11-18T09:44:40;2.33;;;0.90;;
14118;SDS011;7138;49.246;9.100;2022-11-18T09:47:23;3.80;;;1.02;;
14118;SDS011;7138;49.246;9.100;2022-11-18T09:49:53;2.35;;;0.88;;
14118;SDS011;7138;49.246;9.100;2022-11-18T09:52:22;2.83;;;1.23;;
14118;SDS011;7138;49.246;9.100;2022-11-18T09:54:54;3.00;;;1.13;;
14118;SDS011;7138;49.246;9.100;2022-11-18T09:57:20;2.08;;;0.80;;
14118;SDS011;7138;49.246;9.100;2022-11-18T09:59:50;2.10;;;0.80;;
14118;SDS011;7138;49.246;9.100;2022-11-18T10:05:15;4.20;;;0.80;;
14118;SDS011;7138;49.246;9.100;2022-11-18T10:07:56;3.88;;;0.70;;
14118;SDS011;7138;49.246;9.100;2022-11-18T10:10:40;2.35;;;0.70;;
14118;SDS011;7138;49.246;9.100;2022-11-18T10:13:21;2.95;;;1.00;;
14118;SDS011;7138;49.246;9.100;2022-11-18T10:16:05;1.92;;;0.60;;
14118;SDS011;7138;49.246;9.100;2022-11-18T10:18:57;3.22;;;0.90;;
14118;SDS011;7138;49.246;9.100;2022-11-18T10:21:37;3.15;;;0.80;;
14118;SDS011;7138;49.246;9.100;2022-11-18T10:24:17;3.10;;;0.93;;
14118;SDS011;7138;49.246;9.100;2022-11-18T10:26:47;3.00;;;1.15;;
14118;SDS011;7138;49.246;9.100;2022-11-18T10:29:20;2.38;;;0.90;;
14118;SDS011;7138;49.246;9.100;2022-11-18T10:31:55;4.20;;;1.02;;
14118;SDS011;7138;49.246;9.100;2022-11-18T10:34:28;3.50;;;1.00;;
14118;SDS011;7138;49.246;9.100;2022-11-18T10:36:59;1.90;;;0.75;;
14118;SDS011;7138;49.246;9.100;2022-11-18T10:39:27;3.55;;;1.23;;
14118;SDS011;7138;49.246;9.100;2022-11-18T10:41:57;3.60;;;0.93;;
14118;SDS011;7138;49.246;9.100;2022-11-18T10:44:29;3.28;;;0.90;;
14118;SDS011;7138;49.246;9.100;2022-11-18T10:47:13;3.42;;;1.10;;
14118;SDS011;7138;49.246;9.100;2022-11-18T10:49:48;3.38;;;1.30;;
14118;SDS011;7138;49.246;9.100;2022-11-18T10:52:15;2.30;;;1.10;;
14118;SDS011;7138;49.246;9.100;2022-11-18T10:54:41;3.22;;;1.00;;
14118;SDS011;7138;49.246;9.100;2022-11-18T10:57:13;2.97;;;1.45;;
14118;SDS011;7138;49.246;9.100;2022-11-18T10:59:45;3.05;;;1.10;;
14118;SDS011;7138;49.246;9.100;2022-11-18T11:02:18;3.15;;;1.40;;
14118;SDS011;7138;49.246;9.100;2022-11-18T11:04:56;3.28;;;1.23;;
14118;SDS011;7138;49.246;9.100;2022-11-18T11:07:28;2.45;;;0.93;;
14118;SDS011;7138;49.246;9.100;2022-11-18T11:12:45;4.50;;;1.42;;
14118;SDS011;7138;49.246;9.100;2022-11-18T11:15:20;3.10;;;1.17;;
14118;SDS011;7138;49.246;9.100;2022-11-18T11:17:58;4.00;;;1.65;;
14118;SDS011;7138;49.246;9.100;2022-11-18T11:20:47;3.65;;;1.40;;
14118;SDS011;7138;49.246;9.100;2022-11-18T11:23:15;2.90;;;1.42;;
14118;SDS011;7138;49.246;9.100;2022-11-18T11:25:42;5.60;;;1.60;;
14118;SDS011;7138;49.246;9.100;2022-11-18T11:28:21;4.50;;;1.65;;
14118;SDS011;7138;49.246;9.100;2022-11-18T11:31:00;3.38;;;1.70;;
14118;SDS011;7138;49.246;9.100;2022-11-18T11:33:35;6.70;;;2.75;;
14118;SDS011;7138;49.246;9.100;2022-11-18T11:36:15;5.32;;;2.00;;
14118;SDS011;7138;49.246;9.100;2022-11-18T11:39:00;4.82;;;1.90;;
14118;SDS011;7138;49.246;9.100;2022-11-18T11:41:46;4.85;;;1.98;;
14118;SDS011;7138;49.246;9.100;2022-11-18T11:44:31;3.95;;;2.10;;
14118;SDS011;7138;49.246;9.100;2022-11-18T11:47:19;5.38;;;2.40;;
14118;SDS011;7138;49.246;9.100;2022-11-18T11:50:15;5.53;;;2.03;;
14118;SDS011;7138;49.246;9.100;2022-11-18T11:52:56;5.40;;;2.25;;
14118;SDS011;7138;49.246;9.100;2022-11-18T11:55:45;4.68;;;2.10;;
14118;SDS011;7138;49.246;9.100;2022-11-18T11:58:44;3.92;;;2.00;;
14118;SDS011;7138;49.246;9.100;2022-11-18T12:01:33;5.00;;;2.55;;
14118;SDS011;7138;49.246;9.100;2022-11-18T12:04:15;3.97;;;2.03;;
14118;SDS011;7138;49.246;9.100;2022-11-18T12:06:55;4.43;;;2.50;;
14118;SDS011;7138;49.246;9.100;2022-11-18T12:09:25;6.55;;;2.15;;
14118;SDS011;7138;49.246;9.100;2022-11-18T12:12:08;4.60;;;2.10;;
14118;SDS011;7138;49.246;9.100;2022-11-18T12:15:03;4.93;;;2.22;;
14118;SDS011;7138;49.246;9.100;2022-11-18T12:18:07;6.65;;;2.13;;
14118;SDS011;7138;49.246;9.100;2022-11-18T12:20:44;6.72;;;2.75;;
14118;SDS011;7138;49.246;9.100;2022-11-18T12:23:12;6.28;;;1.90;;
14118;SDS011;7138;49.246;9.100;2022-11-18T12:25:49;6.40;;;2.10;;
14118;SDS011;7138;49.246;9.100;2022-11-18T12:28:22;5.35;;;2.65;;
14118;SDS011;7138;49.246;9.100;2022-11-18T12:34:01;4.50;;;1.90;;
14118;SDS011;7138;49.246;9.100;2022-11-18T12:36:55;6.10;;;1.75;;
14118;SDS011;7138;49.246;9.100;2022-11-18T12:39:44;4.28;;;1.77;;
14118;SDS011;7138;49.246;9.100;2022-11-18T12:48:26;2.88;;;1.23;;
14118;SDS011;7138;49.246;9.100;2022-11-18T12:51:01;4.55;;;1.65;;
14118;SDS011;7138;49.246;9.100;2022-11-18T12:53:50;3.00;;;1.35;;
14118;SDS011;7138;49.246;9.100;2022-11-18T12:56:20;3.85;;;1.15;;
14118;SDS011;7138;49.246;9.100;2022-11-18T12:58:50;4.30;;;1.20;;
14118;SDS011;7138;49.246;9.100;2022-11-18T13:01:19;4.38;;;1.45;;
14118;SDS011;7138;49.246;9.100;2022-11-18T13:03:48;3.60;;;1.00;;
14118;SDS011;7138;49.246;9.100;2022-11-18T13:06:21;2.80;;;0.82;;
14118;SDS011;7138;49.246;9.100;2022-11-18T13:08:53;3.30;;;1.00;;
14118;SDS011;7138;49.246;9.100;2022-11-18T13:11:22;3.05;;;1.15;;
14118;SDS011;7138;49.246;9.100;2022-11-18T13:14:13;3.63;;;1.40;;
14118;SDS011;7138;49.246;9.100;2022-11-18T13:17:00;3.53;;;1.20;;
14118;SDS011;7138;49.246;9.100;2022-11-18T13:19:55;2.72;;;1.08;;
14118;SDS011;7138;49.246;9.100;2022-11-18T13:22:23;1.95;;;0.70;;
14118;SDS011;7138;49.246;9.100;2022-11-18T13:25:21;3.38;;;0.77;;
14118;SDS011;7138;49.246;9.100;2022-11-18T13:27:50;2.72;;;0.73;;
14118;SDS011;7138;49.246;9.100;2022-11-18T13:30:27;4.28;;;0.80;;
14118;SDS011;7138;49.246;9.100;2022-11-18T13:32:57;1.92;;;0.70;;
14118;SDS011;7138;49.246;9.100;2022-11-18T13:35:24;2.90;;;0.70;;
14118;SDS011;7138;49.246;9.100;2022-11-18T13:37:56;2.45;;;0.90;;
14118;SDS011;7138;49.246;9.100;2022-11-18T13:40:24;6.18;;;3.08;;
14118;SDS011;7138;49.246;9.100;2022-11-18T13:42:53;6.33;;;1.10;;
14118;SDS011;7138;49.246;9.100;2022-11-18T13:45:20;2.03;;;0.70;;
14118;SDS011;7138;49.246;9.100;2022-11-18T13:47:52;5.50;;;0.77;;
14118;SDS011;7138;49.246;9.100;2022-11-18T13:50:26;4.07;;;0.88;;
14118;SDS011;7138;49.246;9.100;2022-11-18T13:53:12;4.97;;;1.05;;
14118;SDS011;7138;49.246;9.100;2022-11-18T13:55:53;4.47;;;0.85;;
14118;SDS011;7138;49.246;9.100;2022-11-18T13:58:31;2.47;;;0.80;;
14118;SDS011;7138;49.246;9.100;2022-11-18T14:01:02;3.67;;;0.80;;
14118;SDS011;7138;49.246;9.100;2022-11-18T14:03:39;3.92;;;1.02;;
14118;SDS011;7138;49.246;9.100;2022-11-18T14:06:22;7.53;;;1.08;;
14118;SDS011;7138;49.246;9.100;2022-11-18T14:09:02;2.58;;;0.80;;
14118;SDS011;7138;49.246;9.100;2022-11-18T14:11:42;6.15;;;1.10;;
14118;SDS011;7138;49.246;9.100;2022-11-18T14:14:26;2.85;;;0.90;;
14118;SDS011;7138;49.246;9.100;2022-11-18T14:17:01;2.72;;;1.00;;
14118;SDS011;7138;49.246;9.100;2022-11-18T14:19:38;3.13;;;1.20;;
14118;SDS011;7138;49.246;9.100;2022-11-18T14:22:10;3.88;;;0.90;;
14118;SDS011;7138;49.246;9.100;2022-11-18T14:24:41;6.38;;;1.30;;
14118;SDS011;7138;49.246;9.100;2022-11-18T14:27:27;4.10;;;1.02;;
14118;SDS011;7138;49.246;9.100;2022-11-18T14:35:49;5.03;;;1.30;;
14118;SDS011;7138;49.246;9.100;2022-11-18T14:38:20;4.15;;;1.02;;
14118;SDS011;7138;49.246;9.100;2022-11-18T14:40:54;2.97;;;1.00;;
14118;SDS011;7138;49.246;9.100;2022-11-18T14:43:22;7.72;;;1.70;;
14118;SDS011;7138;49.246;9.100;2022-11-18T14:45:49;2.83;;;0.90;;
14118;SDS011;7138;49.246;9.100;2022-11-18T14:48:19;2.80;;;1.23;;
14118;SDS011;7138;49.246;9.100;2022-11-18T14:50:47;5.97;;;1.23;;
14118;SDS011;7138;49.246;9.100;2022-11-18T14:53:13;3.88;;;1.30;;
14118;SDS011;7138;49.246;9.100;2022-11-18T14:55:39;6.18;;;1.75;;
14118;SDS011;7138;49.246;9.100;2022-11-18T14:58:08;4.95;;;1.13;;
14118;SDS011;7138;49.246;9.100;2022-11-18T15:00:38;8.23;;;1.33;;
14118;SDS011;7138;49.246;9.100;2022-11-18T15:03:04;5.72;;;1.60;;
14118;SDS011;7138;49.246;9.100;2022-11-18T15:05:30;5.32;;;1.00;;
14118;SDS011;7138;49.246;9.100;2022-11-18T15:07:59;4.85;;;1.40;;
14118;SDS011;7138;49.246;9.100;2022-11-18T15:10:26;4.72;;;1.20;;
14118;SDS011;7138;49.246;9.100;2022-11-18T15:12:52;9.25;;;1.27;;
14118;SDS011;7138;49.246;9.100;2022-11-18T15:15:19;8.07;;;2.08;;
14118;SDS011;7138;49.246;9.100;2022-11-18T15:17:45;5.47;;;1.00;;
14118;SDS011;7138;49.246;9.100;2022-11-18T15:20:11;6.38;;;1.45;;
14118;SDS011;7138;49.246;9.100;2022-11-18T15:22:40;3.80;;;1.13;;
14118;SDS011;7138;49.246;9.100;2022-11-18T15:25:07;3.92;;;1.40;;
14118;SDS011;7138;49.246;9.100;2022-11-18T15:27:34;4.90;;;1.10;;
14118;SDS011;7138;49.246;9.100;2022-11-18T15:30:00;4.90;;;1.30;;
14118;SDS011;7138;49.246;9.100;2022-11-18T15:32:29;8.20;;;1.55;;
14118;SDS011;7138;49.246;9.100;2022-11-18T15:34:55;8.18;;;1.65;;
14118;SDS011;7138;49.246;9.100;2022-11-18T15:37:21;7.35;;;1.30;;
14118;SDS011;7138;49.246;9.100;2022-11-18T15:39:47;7.75;;;2.03;;
14118;SDS011;7138;49.246;9.100;2022-11-18T15:42:14;5.50;;;1.20;;
14118;SDS011;7138;49.246;9.100;2022-11-18T15:44:40;5.40;;;1.27;;
14118;SDS011;7138;49.246;9.100;2022-11-18T15:47:06;4.05;;;1.02;;
14118;SDS011;7138;49.246;9.100;2022-11-18T15:49:33;5.18;;;1.30;;
14118;SDS011;7138;49.246;9.100;2022-11-18T15:51:59;5.47;;;1.15;;
14118;SDS011;7138;49.246;9.100;2022-11-18T15:54:25;6.13;;;1.42;;